Time;durP1;ratioP1;P1;durP2;ratioP2;P2;SDS_P1;SDS_P2;PMS_P1;PMS_P2;Temp;Humidity;BMP_temperature;BMP_pressure;BME280_temperature;BME280_humidity;BME280_pressure;Samples;Min_cycle;Max_cycle;Signal;HPM_P1;HPM_P2
2020/12/26 00:02:06;;;;;;;8.27;6.70;;;;;;;;;;5066580;28;20035;-58
2020/12/26 00:05:03;;;;;;;9.57;6.23;;;;;;;;;;5066690;28;20017;-55
2020/12/26 00:07:37;;;;;;;15.67;6.87;;;;;;;;;;5066096;28;20036;-55
2020/12/26 00:10:28;;;;;;;7.87;6.53;;;;;;;;;;5066662;28;20070;-56
2020/12/26 00:13:18;;;;;;;8.63;6.60;;;;;;;;;;5044989;28;20041;-58
2020/12/26 00:16:07;;;;;;;9.17;6.23;;;;;;;;;;5007698;28;20060;-58
2020/12/26 00:22:12;;;;;;;8.70;6.03;;;;;;;;;;5011863;28;20059;-57
2020/12/26 00:25:01;;;;;;;7.73;6.00;;;;;;;;;;5077514;28;20065;-55
2020/12/26 00:27:50;;;;;;;7.00;6.23;;;;;;;;;;5046606;28;20037;-58
2020/12/26 00:30:33;;;;;;;10.77;6.20;;;;;;;;;;5047073;28;20071;-55
2020/12/26 00:33:20;;;;;;;8.37;6.37;;;;;;;;;;5034085;28;20076;-55
2020/12/26 00:36:02;;;;;;;12.30;5.40;;;;;;;;;;5046667;28;20037;-55
2020/12/26 00:39:04;;;;;;;12.73;6.77;;;;;;;;;;5046075;28;20033;-57
2020/12/26 00:45:04;;;;;;;6.43;5.17;;;;;;;;;;4946105;29;20183;-57
2020/12/26 00:47:59;;;;;;;8.07;6.27;;;;;;;;;;4946741;29;20051;-57
2020/12/26 00:50:44;;;;;;;13.07;6.77;;;;;;;;;;4972327;28;20076;-58
2020/12/26 00:53:23;;;;;;;12.40;6.63;;;;;;;;;;5022957;28;20109;-57
2020/12/26 00:56:01;;;;;;;6.63;5.83;;;;;;;;;;5024271;28;20040;-57
2020/12/26 00:58:59;;;;;;;7.03;6.20;;;;;;;;;;5024420;28;20061;-53
2020/12/26 01:01:42;;;;;;;8.37;6.27;;;;;;;;;;5045798;28;20021;-56
2020/12/26 01:07:12;;;;;;;12.40;7.63;;;;;;;;;;5046217;28;20033;-57
2020/12/26 01:10:03;;;;;;;10.40;6.70;;;;;;;;;;5046404;28;20033;-58
2020/12/26 01:12:45;;;;;;;7.07;5.03;;;;;;;;;;5064424;28;20041;-57
2020/12/26 01:15:37;;;;;;;;;;;;;;;;;;;;;
2020/12/26 01:21:36;;;;;;;8.63;5.77;;;;;;;;;;5043589;28;20101;-58
2020/12/26 01:24:11;;;;;;;7.93;6.07;;;;;;;;;;5043337;28;20089;-56
2020/12/26 01:26:50;;;;;;;7.67;5.73;;;;;;;;;;5047422;28;20072;-57
2020/12/26 01:29:32;;;;;;;9.37;5.60;;;;;;;;;;5058412;28;20057;-55
2020/12/26 01:32:24;;;;;;;;;;;;;;;;;;;;;
2020/12/26 01:34:53;;;;;;;8.27;6.23;;;;;;;;;;5056161;28;20497;-57
2020/12/26 01:37:51;;;;;;;8.87;5.57;;;;;;;;;;5069598;28;20090;-55
2020/12/26 01:43:57;;;;;;;9.97;7.03;;;;;;;;;;5069127;28;20063;-57
2020/12/26 01:46:53;;;;;;;9.60;6.87;;;;;;;;;;5069527;28;20032;-54
2020/12/26 01:49:42;;;;;;;8.80;6.33;;;;;;;;;;5068465;28;20025;-57
2020/12/26 01:58:28;;;;;;;9.33;8.10;;;;;;;;;;5061253;28;20032;-57
2020/12/26 02:01:12;;;;;;;12.63;7.27;;;;;;;;;;5069170;28;20032;-58
2020/12/26 02:04:31;;;;;;;10.93;7.23;;;;;;;;;;5067496;28;20032;-58
2020/12/26 02:07:11;;;;;;;8.00;5.93;;;;;;;;;;5046313;28;20060;-56
2020/12/26 02:09:54;;;;;;;8.40;5.93;;;;;;;;;;5046083;28;20029;-59
2020/12/26 02:12:29;;;;;;;11.23;7.70;;;;;;;;;;5044406;28;20049;-56
2020/12/26 02:24:59;;;;;;;9.00;7.93;;;;;;;;;;5068576;28;20043;-57
2020/12/26 02:30:34;;;;;;;9.50;6.63;;;;;;;;;;5061354;28;20033;-57
2020/12/26 02:33:36;;;;;;;13.30;8.50;;;;;;;;;;5067320;28;20041;-57
2020/12/26 02:36:23;;;;;;;11.53;7.90;;;;;;;;;;5024525;28;20041;-59
2020/12/26 02:44:55;;;;;;;10.93;8.50;;;;;;;;;;5067540;28;20051;-56
2020/12/26 02:47:30;;;;;;;15.13;8.37;;;;;;;;;;5068228;28;20029;-56
2020/12/26 02:50:15;;;;;;;11.10;7.87;;;;;;;;;;5068331;28;20029;-53
2020/12/26 02:53:05;;;;;;;13.60;7.83;;;;;;;;;;5067737;28;20032;-59
2020/12/26 02:55:38;;;;;;;11.43;8.63;;;;;;;;;;5068327;28;20025;-58
2020/12/26 02:58:23;;;;;;;9.97;7.47;;;;;;;;;;5068285;28;20029;-58
2020/12/26 03:04:05;;;;;;;15.53;9.20;;;;;;;;;;5024445;28;20041;-57
2020/12/26 03:07:04;;;;;;;15.33;8.63;;;;;;;;;;5007098;28;20034;-56
2020/12/26 03:10:11;;;;;;;11.07;8.20;;;;;;;;;;5025044;28;20036;-59
2020/12/26 03:12:45;;;;;;;18.40;10.33;;;;;;;;;;5003365;28;20058;-57
2020/12/26 03:15:23;;;;;;;11.63;9.17;;;;;;;;;;5005595;28;20046;-59
2020/12/26 03:18:01;;;;;;;17.57;11.50;;;;;;;;;;5006111;28;20058;-57
2020/12/26 03:20:49;;;;;;;12.37;10.17;;;;;;;;;;5005776;28;20037;-57
2020/12/26 03:32:53;;;;;;;;;;;;;;;;;;;;;
2020/12/26 03:35:25;;;;;;;16.23;9.10;;;;;;;;;;5039830;28;20068;-58
2020/12/26 03:41:21;;;;;;;18.50;9.07;;;;;;;;;;5047338;28;20055;-58
2020/12/26 03:44:02;;;;;;;7.67;5.73;;;;;;;;;;5046174;28;20108;-57
2020/12/26 03:50:06;;;;;;;12.87;8.87;;;;;;;;;;5047050;28;20069;-59
2020/12/26 03:58:37;;;;;;;9.07;7.23;;;;;;;;;;5044749;28;20119;-57
2020/12/26 04:04:09;;;;;;;12.23;6.73;;;;;;;;;;5044620;28;20042;-58
2020/12/26 04:06:45;;;;;;;7.93;6.33;;;;;;;;;;5047181;28;20096;-56
2020/12/26 04:09:36;;;;;;;10.97;6.50;;;;;;;;;;5047441;28;20021;-58
2020/12/26 04:12:21;;;;;;;10.10;5.97;;;;;;;;;;5061360;28;20040;-58
2020/12/26 04:15:27;;;;;;;8.57;7.53;;;;;;;;;;5066864;28;20121;-56
2020/12/26 04:18:06;;;;;;;14.93;7.73;;;;;;;;;;5066552;28;20033;-58
2020/12/26 04:26:38;;;;;;;10.67;7.40;;;;;;;;;;5066617;28;20048;-59
2020/12/26 04:29:45;;;;;;;13.37;8.87;;;;;;;;;;5066309;28;20092;-59
2020/12/26 04:32:39;;;;;;;14.00;8.13;;;;;;;;;;5050725;28;20505;-57
2020/12/26 04:38:29;;;;;;;14.33;8.57;;;;;;;;;;5053573;28;20044;-55
2020/12/26 04:41:11;;;;;;;19.43;7.40;;;;;;;;;;5049549;28;20036;-58
2020/12/26 04:43:54;;;;;;;14.97;9.20;;;;;;;;;;5027077;28;20033;-58
2020/12/26 04:52:37;;;;;;;10.07;7.73;;;;;;;;;;5051552;28;20029;-58
2020/12/26 04:55:11;;;;;;;15.23;9.83;;;;;;;;;;5053912;28;20425;-59
2020/12/26 04:58:14;;;;;;;;;;;;;;;;;;;;;
2020/12/26 05:01:00;;;;;;;9.67;7.50;;;;;;;;;;5077348;28;20458;-58
2020/12/26 05:06:39;;;;;;;10.23;8.37;;;;;;;;;;5076468;28;20497;-59
2020/12/26 05:09:33;;;;;;;11.87;8.13;;;;;;;;;;5077176;28;20130;-56
2020/12/26 05:15:26;;;;;;;;;;;;;;;;;;;;;
2020/12/26 05:18:24;;;;;;;13.53;7.63;;;;;;;;;;5051992;28;20124;-58
2020/12/26 05:24:47;;;;;;;13.27;7.00;;;;;;;;;;5028884;28;20492;-59
2020/12/26 05:30:35;;;;;;;12.77;8.77;;;;;;;;;;5014569;28;20545;-58
2020/12/26 05:37:02;;;;;;;11.73;8.13;;;;;;;;;;5026851;28;20056;-57
2020/12/26 05:39:48;;;;;;;14.07;9.57;;;;;;;;;;5071547;28;20052;-59
2020/12/26 05:45:37;;;;;;;12.10;8.52;;;;;;;;;;5078656;28;20040;-59
2020/12/26 05:48:27;;;;;;;20.63;9.43;;;;;;;;;;5088878;28;20279;-55
2020/12/26 05:54:07;;;;;;;16.13;10.73;;;;;;;;;;5025240;28;20045;-56
2020/12/26 05:56:43;;;;;;;15.03;9.77;;;;;;;;;;5007972;28;20041;-59
2020/12/26 05:59:31;;;;;;;14.13;11.47;;;;;;;;;;5008028;28;20026;-56
2020/12/26 06:02:22;;;;;;;20.30;10.83;;;;;;;;;;5006901;28;20401;-58
2020/12/26 06:05:07;;;;;;;12.60;10.17;;;;;;;;;;4969284;28;20042;-59
2020/12/26 06:10:58;;;;;;;14.00;10.47;;;;;;;;;;5010883;28;20026;-59
2020/12/26 06:13:43;;;;;;;10.00;8.57;;;;;;;;;;5045605;28;20049;-57
2020/12/26 06:16:32;;;;;;;16.97;10.07;;;;;;;;;;5048883;28;20034;-59
2020/12/26 06:19:50;;;;;;;;;;;;;;;;;;;;;
2020/12/26 06:22:25;;;;;;;17.73;10.97;;;;;;;;;;5035214;28;20061;-59
2020/12/26 06:25:02;;;;;;;12.70;10.13;;;;;;;;;;5086610;28;20044;-58
2020/12/26 06:27:53;;;;;;;;;;;;;;;;;;;;;
2020/12/26 06:30:24;;;;;;;;;;;;;;;;;;5060231;28;20068;-57
2020/12/26 06:33:13;;;;;;;21.53;10.80;;;;;;;;;;5087930;28;19912;-57
2020/12/26 06:41:25;;;;;;;11.27;8.53;;;;;;;;;;5031405;28;20045;-58
2020/12/26 06:44:01;;;;;;;12.73;9.30;;;;;;;;;;5047164;28;20111;-58
2020/12/26 06:46:42;;;;;;;11.97;9.13;;;;;;;;;;5048383;28;20037;-58
2020/12/26 06:52:51;;;;;;;16.47;9.63;;;;;;;;;;5074530;28;20044;-59
2020/12/26 06:56:10;;;;;;;21.63;10.17;;;;;;;;;;5065681;28;20029;-59
2020/12/26 06:59:00;;;;;;;16.40;9.30;;;;;;;;;;5005880;28;20038;-57
2020/12/26 07:01:51;;;;;;;12.85;8.63;;;;;;;;;;5006054;28;20042;-57
2020/12/26 07:04:38;;;;;;;;;;;;;;;;;;;;;
2020/12/26 07:07:13;;;;;;;16.33;9.97;;;;;;;;;;4977540;28;20054;-58
2020/12/26 07:10:20;;;;;;;12.57;9.80;;;;;;;;;;5032509;28;20091;-58
2020/12/26 07:12:55;;;;;;;18.60;9.33;;;;;;;;;;5047269;28;20116;-57
2020/12/26 07:27:41;;;;;;;18.47;11.73;;;;;;;;;;5062701;28;20037;-57
2020/12/26 07:30:34;;;;;;;15.20;10.37;;;;;;;;;;5067446;28;20054;-59
2020/12/26 07:33:13;;;;;;;18.80;12.83;;;;;;;;;;5066317;28;20439;-57
2020/12/26 07:35:43;;;;;;;13.00;10.43;;;;;;;;;;5067053;28;20489;-58
2020/12/26 07:41:19;;;;;;;16.13;10.20;;;;;;;;;;5067926;28;20481;-58
2020/12/26 07:44:20;;;;;;;;;;;;;;;;;;;;;
2020/12/26 07:46:56;;;;;;;12.47;9.37;;;;;;;;;;5067126;28;20044;-59
2020/12/26 07:49:29;;;;;;;18.17;11.83;;;;;;;;;;5067479;28;20057;-58
2020/12/26 07:52:22;;;;;;;21.47;10.30;;;;;;;;;;5066353;28;20057;-60
2020/12/26 07:55:08;;;;;;;18.00;11.73;;;;;;;;;;5050913;28;20041;-59
2020/12/26 07:57:34;;;;;;;13.47;8.83;;;;;;;;;;5066429;28;20025;-59
2020/12/26 08:00:45;;;;;;;17.00;10.47;;;;;;;;;;5067440;28;20406;-59
2020/12/26 08:06:38;;;;;;;17.90;10.77;;;;;;;;;;5066990;28;20028;-58
2020/12/26 08:12:05;;;;;;;15.77;11.20;;;;;;;;;;5065828;28;20048;-58
2020/12/26 08:14:34;;;;;;;18.58;10.90;;;;;;;;;;5066593;28;20040;-57
2020/12/26 08:17:27;;;;;;;;;;;;;;;;;;;;;
2020/12/26 08:20:15;;;;;;;14.00;8.63;;;;;;;;;;5073313;28;20048;-56
2020/12/26 08:23:07;;;;;;;18.17;8.93;;;;;;;;;;5085339;28;20028;-58
2020/12/26 08:26:12;;;;;;;14.37;9.77;;;;;;;;;;5086915;28;20035;-56
2020/12/26 08:28:51;;;;;;;10.20;9.07;;;;;;;;;;5085001;28;20046;-56
2020/12/26 08:31:55;;;;;;;;;;;;;;;;;;;;;
2020/12/26 08:37:44;;;;;;;17.40;9.47;;;;;;;;;;5034319;28;20029;-57
2020/12/26 08:40:20;;;;;;;11.37;8.77;;;;;;;;;;5054523;28;20482;-57
2020/12/26 08:46:11;;;;;;;20.02;10.70;;;;;;;;;;5058409;28;20046;-57
2020/12/26 08:48:59;;;;;;;;;;;;;;;;;;;;;
2020/12/26 08:52:29;;;;;;;;;;;;;;;;;;;;;
2020/12/26 08:58:27;;;;;;;15.00;9.17;;;;;;;;;;5047586;28;20048;-57
2020/12/26 09:04:10;;;;;;;14.27;9.20;;;;;;;;;;5044779;28;20041;-57
2020/12/26 09:06:55;;;;;;;20.80;9.53;;;;;;;;;;5028286;28;20037;-57
2020/12/26 09:12:54;;;;;;;14.37;9.53;;;;;;;;;;5002670;28;20052;-58
2020/12/26 09:24:32;;;;;;;12.13;10.45;;;;;;;;;;4994966;28;20034;-56
2020/12/26 09:27:04;;;;;;;11.97;9.33;;;;;;;;;;4998908;28;20057;-57
2020/12/26 09:29:39;;;;;;;11.27;9.17;;;;;;;;;;4971642;28;20542;-57
2020/12/26 09:32:19;;;;;;;12.67;9.77;;;;;;;;;;4974692;28;20038;-57
2020/12/26 09:35:00;;;;;;;11.67;9.30;;;;;;;;;;4988341;28;20038;-56
2020/12/26 09:40:48;;;;;;;;;;;;;;;;;;;;;
2020/12/26 09:43:41;;;;;;;12.53;7.67;;;;;;;;;;5032273;28;20036;-57
2020/12/26 09:46:36;;;;;;;13.87;7.70;;;;;;;;;;5048095;28;20029;-58
2020/12/26 09:49:49;;;;;;;12.73;7.97;;;;;;;;;;5049151;28;20429;-58
2020/12/26 09:52:38;;;;;;;13.47;7.80;;;;;;;;;;5026526;28;20451;-57
2020/12/26 09:58:26;;;;;;;10.43;7.33;;;;;;;;;;5057866;28;20086;-55
2020/12/26 10:01:10;;;;;;;9.47;7.50;;;;;;;;;;5064053;28;20044;-57
2020/12/26 10:04:22;;;;;;;;;;;;;;;;;;;;;
2020/12/26 10:07:33;;;;;;;;;;;;;;;;;;;;;
2020/12/26 10:19:10;;;;;;;7.93;6.07;;;;;;;;;;5054884;28;20048;-57
2020/12/26 10:27:54;;;;;;;;;;;;;;;;;;;;;
2020/12/26 10:30:43;;;;;;;9.70;5.30;;;;;;;;;;5011281;28;20466;-57
2020/12/26 10:39:34;;;;;;;7.23;4.13;;;;;;;;;;5041747;28;20033;-59
2020/12/26 10:42:19;;;;;;;9.65;4.90;;;;;;;;;;5064997;28;20032;-59
2020/12/26 10:45:01;;;;;;;6.97;5.23;;;;;;;;;;5063075;28;20559;-59
2020/12/26 10:50:27;;;;;;;8.43;5.63;;;;;;;;;;5040731;28;20049;-56
2020/12/26 10:56:54;;;;;;;5.70;3.80;;;;;;;;;;5022279;28;20083;-59
2020/12/26 11:02:32;;;;;;;6.27;4.10;;;;;;;;;;5049141;28;20033;-59
2020/12/26 11:05:17;;;;;;;5.07;3.63;;;;;;;;;;5064530;28;20028;-59
2020/12/26 11:08:12;;;;;;;;;;;;;;;;;;;;;
2020/12/26 11:10:35;;;;;;;7.87;5.20;;;;;;;;;;5051079;28;20052;-57
2020/12/26 11:13:36;;;;;;;5.63;4.43;;;;;;;;;;5064899;28;20498;-59
2020/12/26 11:16:11;;;;;;;;;;;;;;;;;;5013393;28;20061;-56
2020/12/26 11:19:17;;;;;;;7.50;3.77;;;;;;;;;;5071289;28;19931;-58
2020/12/26 11:22:24;;;;;;;;;;;;;;;;;;;;;
2020/12/26 11:25:04;;;;;;;7.70;5.17;;;;;;;;;;5057295;28;20068;-58
2020/12/26 11:30:42;;;;;;;;;;;;;;;;;;;;;
2020/12/26 11:33:40;;;;;;;;;;;;;;;;;;;;;
2020/12/26 11:36:44;;;;;;;8.27;5.97;;;;;;;;;;5044619;28;20041;-58
2020/12/26 11:39:24;;;;;;;6.90;4.53;;;;;;;;;;4972094;28;20408;-57
2020/12/26 11:42:00;;;;;;;6.30;5.23;;;;;;;;;;5042425;28;20044;-58
2020/12/26 11:45:10;;;;;;;7.50;4.23;;;;;;;;;;5052697;28;20447;-59
2020/12/26 11:51:07;;;;;;;4.07;3.23;;;;;;;;;;4988576;28;20035;-57
2020/12/26 11:53:42;;;;;;;6.37;4.13;;;;;;;;;;4989050;28;20500;-58
2020/12/26 11:56:52;;;;;;;8.63;3.97;;;;;;;;;;4979071;28;20178;-58
2020/12/26 11:59:36;;;;;;;10.73;4.03;;;;;;;;;;5026775;28;20479;-58
2020/12/26 12:02:18;;;;;;;7.17;4.03;;;;;;;;;;5048655;28;20060;-56
2020/12/26 12:04:59;;;;;;;5.40;4.03;;;;;;;;;;5051706;28;20029;-55
2020/12/26 12:07:35;;;;;;;6.82;5.05;;;;;;;;;;5053171;28;20467;-56
2020/12/26 12:13:20;;;;;;;;;;;;;;;;;;;;;
2020/12/26 12:25:25;;;;;;;5.77;4.57;;;;;;;;;;5045796;28;20459;-54
2020/12/26 12:28:37;;;;;;;;;;;;;;;;;;;;;
2020/12/26 12:31:20;;;;;;;5.73;2.90;;;;;;;;;;5061271;28;20032;-57
2020/12/26 12:33:58;;;;;;;4.87;3.67;;;;;;;;;;5064624;28;20458;-57
2020/12/26 12:37:16;;;;;;;;;;;;;;;;;;;;;
2020/12/26 12:42:59;;;;;;;14.70;9.23;;;;;;;;;;5053570;28;20597;-57
2020/12/26 12:46:01;;;;;;;16.37;9.47;;;;;;;;;;5046299;28;20025;-57
2020/12/26 12:49:05;;;;;;;;;;;;;;;;;;;;;
2020/12/26 12:54:56;;;;;;;6.07;3.83;;;;;;;;;;5040406;28;20492;-58
2020/12/26 12:57:58;;;;;;;6.07;3.47;;;;;;;;;;5068121;28;20028;-57
2020/12/26 13:00:30;;;;;;;4.97;3.30;;;;;;;;;;5054631;28;20500;-56
2020/12/26 13:03:10;;;;;;;5.97;4.10;;;;;;;;;;5071203;28;20054;-56
2020/12/26 13:11:52;;;;;;;8.03;3.60;;;;;;;;;;5003350;28;20174;-57
2020/12/26 13:14:28;;;;;;;7.83;4.77;;;;;;;;;;5060506;28;20045;-57
2020/12/26 13:16:58;;;;;;;10.73;4.67;;;;;;;;;;5047777;28;20114;-53
2020/12/26 13:19:38;;;;;;;8.33;4.20;;;;;;;;;;5052429;28;20029;-56
2020/12/26 13:22:26;;;;;;;10.25;4.38;;;;;;;;;;5055705;28;20060;-52
2020/12/26 13:25:18;;;;;;;5.67;3.90;;;;;;;;;;5044061;28;20052;-54
2020/12/26 13:28:01;;;;;;;7.20;4.50;;;;;;;;;;5052108;28;20113;-57
2020/12/26 13:30:39;;;;;;;4.67;4.17;;;;;;;;;;5068493;28;20043;-59
2020/12/26 13:39:23;;;;;;;6.40;4.20;;;;;;;;;;4947427;28;20126;-55
2020/12/26 13:45:12;;;;;;;5.93;4.70;;;;;;;;;;4990677;28;20558;-58
2020/12/26 13:47:52;;;;;;;8.57;4.83;;;;;;;;;;5037351;28;20455;-56
2020/12/26 13:50:39;;;;;;;8.73;5.53;;;;;;;;;;5066315;28;20401;-58
2020/12/26 13:53:28;;;;;;;7.57;4.77;;;;;;;;;;5069258;28;20599;-56
2020/12/26 13:56:12;;;;;;;5.27;4.30;;;;;;;;;;5066769;28;20393;-57
2020/12/26 13:59:10;;;;;;;5.50;3.87;;;;;;;;;;5064066;28;20099;-56
2020/12/26 14:01:55;;;;;;;9.07;4.53;;;;;;;;;;5053948;28;20086;-57
2020/12/26 14:04:51;;;;;;;7.10;4.00;;;;;;;;;;5055592;28;20031;-58
2020/12/26 14:11:01;;;;;;;4.40;3.43;;;;;;;;;;5028992;28;20029;-57
2020/12/26 14:13:39;;;;;;;4.37;2.57;;;;;;;;;;5042159;28;20385;-57
2020/12/26 14:16:25;;;;;;;6.90;4.20;;;;;;;;;;5070482;28;20036;-54
2020/12/26 14:19:18;;;;;;;6.50;3.57;;;;;;;;;;5054458;28;20474;-57
2020/12/26 14:22:10;;;;;;;;;;;;;;;;;;;;;
2020/12/26 14:31:20;;;;;;;10.20;4.47;;;;;;;;;;5011411;28;20065;-56
2020/12/26 14:33:55;;;;;;;;;;;;;;;;;;5034084;28;20124;-58
2020/12/26 14:36:57;;;;;;;7.03;4.07;;;;;;;;;;5052518;28;20322;-57
2020/12/26 14:39:26;;;;;;;4.80;4.23;;;;;;;;;;5042627;28;20029;-59
2020/12/26 14:42:05;;;;;;;;;;;;;;;;;;;;;
2020/12/26 14:44:37;;;;;;;7.07;3.90;;;;;;;;;;5030542;28;20365;-58
2020/12/26 14:47:29;;;;;;;4.67;4.13;;;;;;;;;;5016728;28;20482;-57
2020/12/26 14:50:27;;;;;;;5.33;4.27;;;;;;;;;;5053243;28;20031;-57
2020/12/26 14:53:56;;;;;;;;;;;;;;;;;;;;;
2020/12/26 14:56:13;;;;;;;;;;;;;;;;;;5069288;28;20044;-57
2020/12/26 15:02:26;;;;;;;5.80;3.73;;;;;;;;;;5041393;28;20041;-58
2020/12/26 15:07:51;;;;;;;8.10;5.83;;;;;;;;;;5045922;28;20036;-56
2020/12/26 15:10:46;;;;;;;9.43;8.47;;;;;;;;;;5049675;28;20032;-58
2020/12/26 15:13:36;;;;;;;8.73;6.13;;;;;;;;;;5042442;28;20510;-56
2020/12/26 15:16:13;;;;;;;15.18;8.98;;;;;;;;;;5048034;28;20405;-55
2020/12/26 15:19:17;;;;;;;12.17;7.50;;;;;;;;;;5053664;28;20118;-56
2020/12/26 15:28:24;;;;;;;15.40;7.67;;;;;;;;;;4951955;28;20042;-54
2020/12/26 15:31:51;;;;;;;;;;;;;;;;;;;;;
2020/12/26 15:34:53;;;;;;;8.63;6.40;;;;;;;;;;4969398;28;20518;-58
2020/12/26 15:40:27;;;;;;;6.30;5.25;;;;;;;;;;4977540;28;20468;-58
2020/12/26 15:43:01;;;;;;;8.63;6.07;;;;;;;;;;4972121;28;20069;-55
2020/12/26 15:45:35;;;;;;;6.40;4.67;;;;;;;;;;4980895;28;20503;-53
2020/12/26 15:51:03;;;;;;;12.13;6.50;;;;;;;;;;4942566;28;20027;-54
2020/12/26 15:59:39;;;;;;;;;;;;;;;;;;;;;
2020/12/26 16:02:42;;;;;;;;;;;;;;;;;;;;;
2020/12/26 16:05:08;;;;;;;8.17;6.00;;;;;;;;;;5055707;28;20453;-56
2020/12/26 16:08:00;;;;;;;7.13;5.13;;;;;;;;;;5052592;28;20471;-56
2020/12/26 16:16:37;;;;;;;6.83;4.77;;;;;;;;;;5074172;28;20090;-58
2020/12/26 16:19:35;;;;;;;7.27;4.80;;;;;;;;;;5057621;28;20462;-56
2020/12/26 16:22:08;;;;;;;7.10;5.00;;;;;;;;;;5057613;28;20159;-53
2020/12/26 16:25:03;;;;;;;;;;;;;;;;;;;;;
2020/12/26 16:28:13;;;;;;;11.10;6.90;;;;;;;;;;5046413;28;20405;-57
2020/12/26 16:30:54;;;;;;;14.87;5.20;;;;;;;;;;5066344;28;20063;-57
2020/12/26 16:37:04;;;;;;;8.17;7.23;;;;;;;;;;5069088;28;20123;-56
2020/12/26 16:39:53;;;;;;;8.30;5.93;;;;;;;;;;5038296;28;20397;-56
2020/12/26 16:42:35;;;;;;;8.90;5.43;;;;;;;;;;5064504;28;20024;-57
2020/12/26 16:45:13;;;;;;;7.47;4.87;;;;;;;;;;5066096;28;20115;-55
2020/12/26 16:48:18;;;;;;;;;;;;;;;;;;;;;
2020/12/26 16:51:01;;;;;;;7.90;4.83;;;;;;;;;;5039884;28;20136;-57
2020/12/26 16:56:31;;;;;;;6.57;4.47;;;;;;;;;;5052892;28;20047;-58
2020/12/26 17:11:59;;;;;;;7.40;4.23;;;;;;;;;;5016678;28;20030;-58
2020/12/26 17:21:07;;;;;;;;;;;;;;;;;;;;;
2020/12/26 17:24:12;;;;;;;5.47;4.67;;;;;;;;;;4963094;28;20439;-57
2020/12/26 17:26:47;;;;;;;4.03;3.33;;;;;;;;;;5054295;28;20039;-58
2020/12/26 17:29:54;;;;;;;6.37;5.30;;;;;;;;;;5059171;28;20132;-57
2020/12/26 17:32:39;;;;;;;6.13;5.47;;;;;;;;;;5070279;28;20177;-57
2020/12/26 17:38:45;;;;;;;5.60;5.00;;;;;;;;;;5067357;28;20490;-55
2020/12/26 17:41:46;;;;;;;;;;;;;;;;;;;;;
2020/12/26 17:47:22;;;;;;;5.63;4.97;;;;;;;;;;5046920;28;20033;-57
2020/12/26 17:49:57;;;;;;;12.53;7.23;;;;;;;;;;5072013;28;20478;-57
2020/12/26 17:55:22;;;;;;;14.10;9.03;;;;;;;;;;5048746;28;20071;-56
2020/12/26 17:58:05;;;;;;;10.13;7.27;;;;;;;;;;5062345;28;20286;-57
2020/12/26 18:00:38;;;;;;;9.57;6.97;;;;;;;;;;5067952;28;20533;-57
2020/12/26 18:03:28;;;;;;;9.00;6.07;;;;;;;;;;5058186;28;20072;-57
2020/12/26 18:09:18;;;;;;;10.30;6.93;;;;;;;;;;5054073;28;20170;-54
2020/12/26 18:12:23;;;;;;;10.20;5.75;;;;;;;;;;5067833;28;20361;-57
2020/12/26 18:24:11;;;;;;;8.13;6.57;;;;;;;;;;4978942;28;20130;-57
2020/12/26 18:27:07;;;;;;;;;;;;;;;;;;;;;
2020/12/26 18:29:46;;;;;;;17.30;8.83;;;;;;;;;;5052014;28;20037;-57
2020/12/26 18:32:23;;;;;;;12.40;8.50;;;;;;;;;;5081397;28;20498;-57
2020/12/26 18:34:59;;;;;;;;;;;;;;;;;;;;;
2020/12/26 18:37:25;;;;;;;11.77;6.10;;;;;;;;;;5069741;28;20369;-58
2020/12/26 18:40:16;;;;;;;10.73;7.57;;;;;;;;;;5067664;28;20569;-57
2020/12/26 18:46:05;;;;;;;10.87;8.57;;;;;;;;;;5049844;28;20032;-57
2020/12/26 18:48:58;;;;;;;8.40;7.50;;;;;;;;;;4972838;28;20027;-56
2020/12/26 18:51:37;;;;;;;;;;;;;;;;;;;;;
2020/12/26 18:54:33;;;;;;;13.07;9.03;;;;;;;;;;5052737;28;20050;-57
2020/12/26 18:57:25;;;;;;;12.67;6.57;;;;;;;;;;5041444;28;20496;-57
2020/12/26 19:00:41;;;;;;;8.60;6.93;;;;;;;;;;5046069;28;20540;-57
2020/12/26 19:03:43;;;;;;;16.90;8.63;;;;;;;;;;4976282;28;20125;-55
2020/12/26 19:06:39;;;;;;;11.60;7.33;;;;;;;;;;4976630;28;20476;-55
2020/12/26 19:09:16;;;;;;;11.00;9.07;;;;;;;;;;5050804;28;20036;-56
2020/12/26 19:12:03;;;;;;;10.60;5.63;;;;;;;;;;5053541;28;20087;-57
2020/12/26 19:14:52;;;;;;;8.00;7.03;;;;;;;;;;5056483;28;20051;-55
2020/12/26 19:17:42;;;;;;;6.53;5.27;;;;;;;;;;5069762;28;20029;-55
2020/12/26 19:20:25;;;;;;;12.40;6.63;;;;;;;;;;5059052;28;20056;-57
2020/12/26 19:23:22;;;;;;;9.10;7.07;;;;;;;;;;5068580;28;20032;-57
2020/12/26 19:26:13;;;;;;;8.03;5.57;;;;;;;;;;5051796;28;20083;-58
2020/12/26 19:35:21;;;;;;;11.30;7.37;;;;;;;;;;4979762;28;20034;-58
2020/12/26 19:40:54;;;;;;;15.20;8.23;;;;;;;;;;5057616;28;20052;-57
2020/12/26 19:47:09;;;;;;;9.47;6.13;;;;;;;;;;4972739;28;20130;-58
2020/12/26 19:52:54;;;;;;;10.38;6.40;;;;;;;;;;4988436;28;20033;-59
2020/12/26 19:56:01;;;;;;;6.43;5.73;;;;;;;;;;4975111;28;20497;-58
2020/12/26 19:58:34;;;;;;;14.83;6.63;;;;;;;;;;4964502;28;20046;-58
2020/12/26 20:01:47;;;;;;;15.70;7.63;;;;;;;;;;4978127;28;20307;-55
2020/12/26 20:04:32;;;;;;;10.50;6.37;;;;;;;;;;4911579;29;20060;-56
2020/12/26 20:07:33;;;;;;;6.80;5.90;;;;;;;;;;4889793;29;20446;-57
2020/12/26 20:10:31;;;;;;;9.37;5.63;;;;;;;;;;4863471;28;20040;-56
2020/12/26 20:13:35;;;;;;;6.00;4.73;;;;;;;;;;5032975;28;20437;-52
2020/12/26 20:19:36;;;;;;;;;;;;;;;;;;;;;
2020/12/26 20:22:32;;;;;;;17.77;10.67;;;;;;;;;;4977294;28;20034;-58
2020/12/26 20:25:22;;;;;;;12.37;7.43;;;;;;;;;;4984649;28;20054;-57
2020/12/26 20:28:11;;;;;;;9.37;6.27;;;;;;;;;;5011398;28;20548;-54
2020/12/26 20:30:55;;;;;;;9.63;7.37;;;;;;;;;;5031212;28;20535;-56
2020/12/26 20:33:31;;;;;;;6.90;5.00;;;;;;;;;;5063417;28;20025;-58
2020/12/26 20:39:53;;;;;;;7.20;4.57;;;;;;;;;;4937483;28;20046;-58
2020/12/26 20:42:40;;;;;;;6.47;4.07;;;;;;;;;;4980088;28;20385;-58
2020/12/26 20:45:37;;;;;;;8.10;5.13;;;;;;;;;;4990311;28;20535;-57
2020/12/26 20:48:25;;;;;;;8.57;4.20;;;;;;;;;;5035224;28;20045;-58
2020/12/26 20:51:10;;;;;;;7.80;5.00;;;;;;;;;;5069576;28;20035;-56
2020/12/26 20:53:51;;;;;;;5.70;4.67;;;;;;;;;;5068611;28;20063;-56
2020/12/26 20:59:24;;;;;;;5.97;4.03;;;;;;;;;;5065048;28;20120;-54
2020/12/26 21:02:22;;;;;;;7.67;5.27;;;;;;;;;;5064072;28;20488;-58
2020/12/26 21:04:58;;;;;;;4.13;3.43;;;;;;;;;;5057373;28;20031;-58
2020/12/26 21:10:47;;;;;;;5.17;3.27;;;;;;;;;;5052359;28;20035;-57
2020/12/26 21:16:45;;;;;;;4.20;3.33;;;;;;;;;;5013551;28;20041;-58
2020/12/26 21:19:50;;;;;;;3.40;2.53;;;;;;;;;;5051621;28;20037;-58
2020/12/26 21:22:29;;;;;;;5.63;3.47;;;;;;;;;;5051526;28;20033;-56
2020/12/26 21:25:13;;;;;;;6.03;4.03;;;;;;;;;;5066995;28;20055;-59
2020/12/26 21:27:46;;;;;;;4.23;3.20;;;;;;;;;;5070486;28;20037;-57
2020/12/26 21:30:36;;;;;;;;;;;;;;;;;;;;;
2020/12/26 21:33:39;;;;;;;4.17;2.17;;;;;;;;;;5058090;28;20510;-56
2020/12/26 21:36:38;;;;;;;4.07;2.83;;;;;;;;;;5067506;28;20465;-58
2020/12/26 21:39:31;;;;;;;8.90;3.10;;;;;;;;;;5013329;28;20044;-58
2020/12/26 21:42:12;;;;;;;4.77;3.57;;;;;;;;;;5064842;28;20361;-56
2020/12/26 21:47:50;;;;;;;7.30;3.03;;;;;;;;;;5047706;28;20445;-58
2020/12/26 21:50:19;;;;;;;4.73;3.43;;;;;;;;;;5053022;28;20401;-54
2020/12/26 21:52:58;;;;;;;4.07;2.33;;;;;;;;;;5054824;28;20124;-58
2020/12/26 21:55:44;;;;;;;7.10;3.43;;;;;;;;;;5054382;28;20048;-56
2020/12/26 21:58:30;;;;;;;;;;;;;;;;;;;;;
2020/12/26 22:00:59;;;;;;;7.97;3.57;;;;;;;;;;5060550;28;20104;-56
2020/12/26 22:03:55;;;;;;;4.47;3.07;;;;;;;;;;5068073;28;20078;-54
2020/12/26 22:06:34;;;;;;;6.80;3.10;;;;;;;;;;5055593;28;20051;-55
2020/12/26 22:09:06;;;;;;;3.63;2.63;;;;;;;;;;5061059;28;20072;-57
2020/12/26 22:11:43;;;;;;;4.83;2.83;;;;;;;;;;5068353;28;20056;-59
2020/12/26 22:17:26;;;;;;;4.33;3.87;;;;;;;;;;5060096;28;20101;-57
2020/12/26 22:20:04;;;;;;;4.77;3.73;;;;;;;;;;5068456;28;20043;-55
2020/12/26 22:22:53;;;;;;;4.70;3.40;;;;;;;;;;5067836;28;20041;-56
2020/12/26 22:31:27;;;;;;;7.03;3.38;;;;;;;;;;5069503;28;20032;-56
2020/12/26 22:34:05;;;;;;;6.00;3.37;;;;;;;;;;5072758;28;20048;-57
2020/12/26 22:36:56;;;;;;;5.87;3.20;;;;;;;;;;5068683;28;20045;-58
2020/12/26 22:39:50;;;;;;;5.03;3.77;;;;;;;;;;5068754;28;20025;-55
2020/12/26 22:42:46;;;;;;;3.43;2.73;;;;;;;;;;5068011;28;20116;-57
2020/12/26 22:45:16;;;;;;;5.53;3.57;;;;;;;;;;5066468;28;20120;-57
2020/12/26 22:51:04;;;;;;;3.30;2.40;;;;;;;;;;5068352;28;20056;-57
2020/12/26 22:53:47;;;;;;;5.03;2.47;;;;;;;;;;5065687;28;20079;-56
2020/12/26 22:56:26;;;;;;;4.47;3.03;;;;;;;;;;5068273;28;20048;-57
2020/12/26 22:59:21;;;;;;;4.97;3.37;;;;;;;;;;5067805;28;20033;-56
2020/12/26 23:02:07;;;;;;;4.90;3.40;;;;;;;;;;5067596;28;20459;-56
2020/12/26 23:07:44;;;;;;;5.15;2.83;;;;;;;;;;5068377;28;20075;-56
2020/12/26 23:13:12;;;;;;;4.17;2.67;;;;;;;;;;5033164;28;20044;-58
2020/12/26 23:22:02;;;;;;;5.03;3.47;;;;;;;;;;5005636;28;20038;-56
2020/12/26 23:24:54;;;;;;;4.50;3.13;;;;;;;;;;5058806;28;20033;-58
2020/12/26 23:27:39;;;;;;;4.43;2.67;;;;;;;;;;5065610;28;20029;-58
2020/12/26 23:30:35;;;;;;;8.73;3.20;;;;;;;;;;5067847;28;20029;-57
2020/12/26 23:39:35;;;;;;;5.23;2.60;;;;;;;;;;5033570;28;20037;-54
2020/12/26 23:42:26;;;;;;;5.53;3.33;;;;;;;;;;5066815;28;20025;-57
2020/12/26 23:45:27;;;;;;;14.57;4.22;;;;;;;;;;5065989;28;20044;-55
2020/12/26 23:48:23;;;;;;;4.70;2.95;;;;;;;;;;5067740;28;20029;-56
2020/12/26 23:51:06;;;;;;;6.40;3.60;;;;;;;;;;5066224;28;20040;-57